Time;durP1;ratioP1;P1;durP2;ratioP2;P2;SDS_P1;SDS_P2;PMS_P1;PMS_P2;Temp;Humidity;BMP_temperature;BMP_pressure;BME280_temperature;BME280_humidity;BME280_pressure;Samples;Min_cycle;Max_cycle;Signal;HPM_P1;HPM_P2
2021/11/15 00:00:43;;;;;;;28.43;15.97;;;;;;;5.45;100.00;96701.25;5034415;28;20116;-74
2021/11/15 00:03:11;;;;;;;26.57;15.30;;;;;;;5.42;100.00;96709.31;5029761;28;20087;-74
2021/11/15 00:05:36;;;;;;;31.33;17.07;;;;;;;5.42;100.00;96707.53;5017820;28;20209;-74
2021/11/15 00:08:02;;;;;;;28.47;15.40;;;;;;;5.43;100.00;96709.22;5032487;28;20631;-74
2021/11/15 00:10:28;;;;;;;28.40;15.47;;;;;;;5.40;100.00;96704.22;5037606;28;20506;-74
2021/11/15 00:12:54;;;;;;;29.77;16.00;;;;;;;5.47;100.00;96709.81;5034610;28;20049;-74
2021/11/15 00:15:21;;;;;;;26.57;15.00;;;;;;;5.38;100.00;96705.28;5035680;28;20033;-74
2021/11/15 00:17:48;;;;;;;26.03;15.07;;;;;;;5.40;100.00;96709.44;5026471;28;20082;-74
2021/11/15 00:20:15;;;;;;;24.93;14.60;;;;;;;5.43;100.00;96709.22;5021118;28;20119;-74
2021/11/15 00:22:41;;;;;;;30.30;15.63;;;;;;;5.40;100.00;96716.44;5021920;28;20045;-74
2021/11/15 00:25:08;;;;;;;26.00;15.40;;;;;;;5.41;100.00;96711.09;5023002;28;20642;-74
2021/11/15 00:27:33;;;;;;;27.53;15.13;;;;;;;5.42;100.00;96712.75;5036043;28;20124;-73
2021/11/15 00:30:00;;;;;;;27.77;15.03;;;;;;;5.41;100.00;96718.91;5032197;28;20108;-74
2021/11/15 00:32:29;;;;;;;30.43;15.63;;;;;;;5.38;100.00;96713.91;5022504;28;20037;-74
2021/11/15 00:34:55;;;;;;;25.33;14.00;;;;;;;5.37;100.00;96708.84;5022532;28;20079;-74
2021/11/15 00:37:21;;;;;;;24.13;14.70;;;;;;;5.44;100.00;96710.84;5011498;28;20020;-74
2021/11/15 00:39:48;;;;;;;27.17;15.50;;;;;;;5.36;100.00;96707.16;5029080;28;20573;-73
2021/11/15 00:42:14;;;;;;;24.10;14.80;;;;;;;5.34;100.00;96709.88;5020082;28;20406;-73
2021/11/15 00:44:41;;;;;;;24.57;14.43;;;;;;;5.32;100.00;96706.56;5017614;28;20022;-73
2021/11/15 00:47:08;;;;;;;26.20;15.80;;;;;;;5.34;100.00;96696.84;5035747;28;20394;-74
2021/11/15 00:49:34;;;;;;;26.90;16.37;;;;;;;5.27;100.00;96698.25;5019393;28;20083;-73
2021/11/15 00:52:00;;;;;;;26.07;15.27;;;;;;;5.29;100.00;96703.34;5038638;28;20499;-73
2021/11/15 00:54:26;;;;;;;29.80;16.70;;;;;;;5.26;100.00;96700.97;5042257;28;20032;-73
2021/11/15 00:56:52;;;;;;;28.17;15.87;;;;;;;5.24;100.00;96702.88;5041479;28;20078;-73
2021/11/15 00:59:18;;;;;;;24.93;13.87;;;;;;;5.21;100.00;96701.31;5036913;28;20364;-73
2021/11/15 01:01:44;;;;;;;26.20;14.67;;;;;;;5.16;100.00;96704.28;5025366;28;20036;-73
2021/11/15 01:04:10;;;;;;;28.60;15.70;;;;;;;5.09;100.00;96702.22;5014917;28;20037;-73
2021/11/15 01:06:35;;;;;;;28.47;15.00;;;;;;;5.13;100.00;96701.91;5040927;28;20398;-73
2021/11/15 01:09:02;;;;;;;26.80;14.27;;;;;;;5.15;100.00;96710.41;5044951;28;20029;-73
2021/11/15 01:11:28;;;;;;;32.97;16.93;;;;;;;5.08;100.00;96705.78;5017797;28;20047;-73
2021/11/15 01:13:55;;;;;;;27.60;16.67;;;;;;;5.06;100.00;96713.69;5039289;28;20041;-73
2021/11/15 01:16:22;;;;;;;25.27;15.03;;;;;;;5.06;100.00;96699.84;5021915;28;20029;-73
2021/11/15 01:18:50;;;;;;;27.93;15.43;;;;;;;5.10;100.00;96701.31;5012734;28;20038;-73
2021/11/15 01:21:16;;;;;;;27.27;14.93;;;;;;;5.10;100.00;96701.31;5034486;28;20025;-73
2021/11/15 01:23:44;;;;;;;23.67;14.10;;;;;;;5.03;100.00;96702.69;5005827;28;20052;-73
2021/11/15 01:26:10;;;;;;;25.13;15.03;;;;;;;5.07;100.00;96706.75;5030399;28;20039;-73
2021/11/15 01:28:36;;;;;;;28.73;16.23;;;;;;;5.11;100.00;96697.75;5020180;28;20026;-73
2021/11/15 01:31:03;;;;;;;25.13;13.80;;;;;;;5.09;100.00;96703.06;5037068;28;20112;-73
2021/11/15 01:33:29;;;;;;;25.23;14.83;;;;;;;4.99;100.00;96698.63;5041304;28;20029;-73
2021/11/15 01:35:55;;;;;;;26.60;14.17;;;;;;;5.03;100.00;96694.84;5036712;28;20469;-73
2021/11/15 01:38:22;;;;;;;24.33;14.10;;;;;;;5.03;100.00;96700.94;5010384;28;20025;-73
2021/11/15 01:40:47;;;;;;;25.30;14.43;;;;;;;5.06;100.00;96699.84;5038158;28;20037;-73
2021/11/15 01:43:13;;;;;;;23.73;14.37;;;;;;;5.07;100.00;96706.75;5025000;28;20569;-73
2021/11/15 01:45:40;;;;;;;20.63;12.97;;;;;;;5.07;100.00;96704.97;5036663;28;20033;-73
2021/11/15 01:48:08;;;;;;;24.90;13.57;;;;;;;5.07;100.00;96701.53;5029258;28;20038;-73
2021/11/15 01:50:35;;;;;;;22.57;13.30;;;;;;;5.03;100.00;96710.50;5001045;28;20154;-73
2021/11/15 01:53:03;;;;;;;27.50;14.67;;;;;;;4.96;100.00;96703.16;5041959;28;20028;-73
2021/11/15 01:55:31;;;;;;;23.27;14.13;;;;;;;5.02;100.00;96699.25;5039330;28;20030;-73
2021/11/15 01:57:58;;;;;;;24.70;14.90;;;;;;;5.00;100.00;96695.06;5019306;28;20113;-72
2021/11/15 02:00:33;;;;;;;23.37;14.87;;;;;;;4.91;100.00;96704.44;5017680;28;20120;-73
2021/11/15 02:03:00;;;;;;;21.87;12.53;;;;;;;4.97;100.00;96702.19;5035181;28;20112;-73
2021/11/15 02:05:26;;;;;;;23.80;13.17;;;;;;;4.91;100.00;96700.03;5047091;28;20055;-73
2021/11/15 02:07:52;;;;;;;23.63;12.97;;;;;;;4.92;100.00;96699.09;5020059;28;20522;-73
2021/11/15 02:10:18;;;;;;;23.40;13.90;;;;;;;4.89;100.00;96694.09;5025372;28;20745;-72
2021/11/15 02:12:44;;;;;;;25.30;13.80;;;;;;;4.91;100.00;96692.22;5038692;28;20086;-73
2021/11/15 02:15:13;;;;;;;24.40;12.97;;;;;;;4.91;100.00;96696.59;5039789;28;20474;-73
2021/11/15 02:17:45;;;;;;;23.67;12.80;;;;;;;4.85;100.00;96697.88;5021462;28;20028;-74
2021/11/15 02:20:47;;;;;;;20.53;12.07;;;;;;;4.83;100.00;96693.72;5041845;28;20144;-73
2021/11/15 02:23:14;;;;;;;23.57;13.60;;;;;;;4.82;100.00;96687.69;5032680;28;20076;-73
2021/11/15 02:25:40;;;;;;;20.50;11.90;;;;;;;4.86;100.00;96689.13;5034939;28;20026;-73
2021/11/15 02:28:06;;;;;;;24.20;13.67;;;;;;;4.83;100.00;96696.31;5037830;28;20029;-73
2021/11/15 02:30:32;;;;;;;22.13;12.33;;;;;;;4.86;100.00;96686.53;5042049;28;20108;-73
2021/11/15 02:32:58;;;;;;;23.27;12.73;;;;;;;4.80;100.00;96694.78;5023486;28;20045;-73
2021/11/15 02:35:24;;;;;;;19.67;10.70;;;;;;;4.81;100.00;96688.63;5007884;28;20025;-73
2021/11/15 02:37:51;;;;;;;19.93;11.77;;;;;;;4.77;100.00;96684.59;5035850;28;20051;-73
2021/11/15 02:40:25;;;;;;;23.77;12.23;;;;;;;4.83;100.00;96673.72;5019731;28;20036;-73
2021/11/15 02:42:51;;;;;;;23.10;11.73;;;;;;;4.85;100.00;96677.03;5041329;28;20086;-73
2021/11/15 02:45:18;;;;;;;21.50;12.17;;;;;;;4.81;100.00;96665.19;5032445;28;20057;-73
2021/11/15 02:47:44;;;;;;;22.77;12.33;;;;;;;4.81;100.00;96669.56;5035264;28;20040;-73
2021/11/15 02:50:17;;;;;;;23.57;12.43;;;;;;;4.80;100.00;96671.34;5031080;28;20021;-72
2021/11/15 02:52:45;;;;;;;21.40;11.60;;;;;;;4.75;100.00;96676.03;5031150;28;20079;-73
2021/11/15 02:55:11;;;;;;;22.67;12.43;;;;;;;4.75;100.00;96678.66;5029772;28;20053;-73
2021/11/15 02:57:37;;;;;;;24.50;12.30;;;;;;;4.77;100.00;96679.38;5008593;28;20529;-73
2021/11/15 03:00:16;;;;;;;23.10;13.40;;;;;;;4.69;100.00;96672.13;5019119;28;20029;-73
2021/11/15 03:02:41;;;;;;;24.23;13.37;;;;;;;4.73;100.00;96675.34;5029487;28;20142;-73
2021/11/15 03:05:08;;;;;;;22.13;12.93;;;;;;;4.74;100.00;96663.97;5017608;28;20116;-73
2021/11/15 03:07:34;;;;;;;21.17;12.03;;;;;;;4.76;100.00;96664.66;4995647;28;20108;-73
2021/11/15 03:10:00;;;;;;;22.37;12.17;;;;;;;4.74;100.00;96656.16;5047439;28;20498;-73
2021/11/15 03:12:35;;;;;;;21.50;11.87;;;;;;;4.71;100.00;96665.03;5018521;28;20029;-73
2021/11/15 03:15:01;;;;;;;22.87;12.73;;;;;;;4.77;100.00;96657.72;5009427;28;20040;-73
2021/11/15 03:17:27;;;;;;;19.43;11.63;;;;;;;4.70;100.00;96655.56;5033954;28;20104;-73
2021/11/15 03:19:52;;;;;;;20.73;11.70;;;;;;;4.76;100.00;96661.25;5020716;28;20033;-73
2021/11/15 03:22:18;;;;;;;20.53;12.10;;;;;;;4.71;100.00;96648.56;5019244;28;20094;-72
2021/11/15 03:24:45;;;;;;;23.03;12.30;;;;;;;4.68;100.00;96654.00;5036770;28;20029;-72
2021/11/15 03:27:11;;;;;;;20.37;11.87;;;;;;;4.68;100.00;96654.81;5027466;28;20040;-73
2021/11/15 03:29:37;;;;;;;22.30;11.53;;;;;;;4.72;100.00;96658.84;5038407;28;20029;-73
2021/11/15 03:32:03;;;;;;;24.83;13.33;;;;;;;4.66;100.00;96666.28;5018245;28;20036;-73
2021/11/15 03:34:29;;;;;;;21.87;11.40;;;;;;;4.64;100.00;96657.78;5048856;28;20056;-72
2021/11/15 03:36:54;;;;;;;22.43;12.20;;;;;;;4.66;100.00;96667.16;5025551;28;20061;-72
2021/11/15 03:39:20;;;;;;;21.57;12.70;;;;;;;4.68;100.00;96670.44;5038128;28;20496;-72
2021/11/15 03:41:46;;;;;;;23.97;12.27;;;;;;;4.67;100.00;96662.75;5040859;28;20029;-72
2021/11/15 03:44:13;;;;;;;23.73;13.40;;;;;;;4.67;100.00;96657.56;5049902;28;20541;-72
2021/11/15 03:46:40;;;;;;;24.33;12.47;;;;;;;4.67;100.00;96666.19;5032566;28;20040;-72
2021/11/15 03:49:07;;;;;;;20.93;11.10;;;;;;;4.64;100.00;96662.97;5017656;28;20434;-72
2021/11/15 03:51:34;;;;;;;22.50;12.20;;;;;;;4.64;100.00;96662.97;5019828;28;20058;-72
2021/11/15 03:54:00;;;;;;;24.37;13.17;;;;;;;4.62;100.00;96660.47;5047216;28;20030;-72
2021/11/15 03:56:27;;;;;;;21.63;12.40;;;;;;;4.65;100.00;96662.03;5048487;28;20494;-72
2021/11/15 03:58:56;;;;;;;21.87;12.50;;;;;;;4.58;100.00;96659.03;5048808;28;20103;-71
2021/11/15 04:01:26;;;;;;;19.63;10.80;;;;;;;4.57;100.00;96666.97;5033581;28;20479;-72
2021/11/15 04:03:54;;;;;;;24.33;12.33;;;;;;;4.57;100.00;96672.19;5023177;28;20041;-72
2021/11/15 04:06:28;;;;;;;23.90;12.43;;;;;;;4.55;100.00;96668.84;5033596;28;20036;-72
2021/11/15 04:08:56;;;;;;;20.50;12.40;;;;;;;4.49;100.00;96668.38;5034898;28;20033;-72
2021/11/15 04:11:24;;;;;;;21.27;12.23;;;;;;;4.52;100.00;96661.25;5019637;28;20033;-71
2021/11/15 04:13:54;;;;;;;22.37;12.87;;;;;;;4.55;100.00;96655.84;5025512;28;20106;-72
2021/11/15 04:16:20;;;;;;;23.67;12.40;;;;;;;4.51;100.00;96662.22;5035799;28;20637;-71
2021/11/15 04:18:52;;;;;;;22.30;12.20;;;;;;;4.49;100.00;96657.94;5037345;28;20272;-72
2021/11/15 04:21:19;;;;;;;20.20;11.20;;;;;;;4.49;100.00;96662.31;5020290;28;20044;-72
2021/11/15 04:23:45;;;;;;;21.87;12.10;;;;;;;4.48;100.00;96658.88;5037314;28;20041;-72
2021/11/15 04:26:11;;;;;;;19.23;10.90;;;;;;;4.51;100.00;96663.03;5036307;28;20079;-72
2021/11/15 04:28:37;;;;;;;22.10;12.00;;;;;;;4.55;100.00;96664.47;5026921;28;20033;-72
2021/11/15 04:31:03;;;;;;;25.30;12.43;;;;;;;4.53;100.00;96663.78;5038557;28;20623;-72
2021/11/15 04:33:29;;;;;;;23.90;13.23;;;;;;;4.52;100.00;96682.91;5017615;28;20025;-71
2021/11/15 04:35:54;;;;;;;28.87;13.53;;;;;;;4.51;100.00;96681.28;5046545;28;20013;-72
2021/11/15 04:38:21;;;;;;;24.90;13.17;;;;;;;4.53;100.00;96675.94;5030215;28;20033;-71
2021/11/15 04:40:47;;;;;;;24.53;13.63;;;;;;;4.53;100.00;96682.00;5037059;28;20500;-72
2021/11/15 04:43:13;;;;;;;23.67;13.97;;;;;;;4.51;100.00;96677.84;5006915;28;20482;-71
2021/11/15 04:45:39;;;;;;;23.23;13.03;;;;;;;4.46;100.00;96680.75;5021007;28;20024;-73
2021/11/15 04:48:06;;;;;;;22.40;13.43;;;;;;;4.54;100.00;96675.00;5021888;28;20067;-73
2021/11/15 04:50:32;;;;;;;24.63;12.83;;;;;;;4.54;100.00;96680.22;5023738;28;20021;-73
2021/11/15 04:52:58;;;;;;;28.17;14.13;;;;;;;4.45;100.00;96669.50;5021384;28;20116;-72
2021/11/15 04:55:24;;;;;;;25.47;13.23;;;;;;;4.44;100.00;96667.84;5027651;28;20031;-73
2021/11/15 04:57:51;;;;;;;24.80;12.80;;;;;;;4.48;100.00;96666.69;5028444;28;20071;-73
2021/11/15 05:00:23;;;;;;;26.07;13.33;;;;;;;4.46;100.00;96652.09;5040888;28;20787;-73
2021/11/15 05:02:50;;;;;;;25.47;13.23;;;;;;;4.45;100.00;96664.31;5039412;28;20025;-73
2021/11/15 05:05:18;;;;;;;26.80;14.67;;;;;;;4.41;100.00;96660.25;5025272;28;20471;-73
2021/11/15 05:07:45;;;;;;;24.50;13.87;;;;;;;4.44;100.00;96659.22;5023683;28;20033;-73
2021/11/15 05:10:11;;;;;;;24.80;15.70;;;;;;;4.45;100.00;96650.47;5033243;28;20055;-73
2021/11/15 05:12:37;;;;;;;25.83;14.40;;;;;;;4.46;100.00;96662.53;5003017;28;20041;-73
2021/11/15 05:15:06;;;;;;;23.50;13.47;;;;;;;4.43;100.00;96661.00;5038195;28;20116;-73
2021/11/15 05:17:32;;;;;;;25.33;13.70;;;;;;;4.45;100.00;96669.50;5024911;28;20053;-73
2021/11/15 05:19:58;;;;;;;25.57;12.30;;;;;;;4.44;100.00;96664.44;5037615;28;20060;-73
2021/11/15 05:22:23;;;;;;;25.63;13.57;;;;;;;4.46;100.00;96675.53;5041677;28;20402;-78
2021/11/15 05:24:49;;;;;;;26.20;14.23;;;;;;;4.42;100.00;96674.94;5047216;28;20025;-73
2021/11/15 05:27:15;;;;;;;25.87;13.57;;;;;;;4.46;100.00;96666.00;5039546;28;20117;-73
2021/11/15 05:29:40;;;;;;;27.07;12.70;;;;;;;4.39;100.00;96663.91;5021264;28;20023;-73
2021/11/15 05:32:06;;;;;;;23.13;13.70;;;;;;;4.39;100.00;96664.78;5028671;28;20030;-73
2021/11/15 05:34:32;;;;;;;28.53;15.10;;;;;;;4.37;100.00;96664.03;5016836;28;20029;-73
2021/11/15 05:36:58;;;;;;;24.27;13.80;;;;;;;4.34;100.00;96664.25;5030437;28;20035;-73
2021/11/15 05:39:23;;;;;;;29.10;14.70;;;;;;;4.36;100.00;96670.19;5025309;28;20037;-73
2021/11/15 05:41:49;;;;;;;24.97;13.23;;;;;;;4.39;100.00;96661.31;5019269;28;20061;-73
2021/11/15 05:44:15;;;;;;;27.90;13.93;;;;;;;4.33;100.00;96665.22;5023254;28;20025;-73
2021/11/15 05:46:41;;;;;;;25.90;14.40;;;;;;;4.35;100.00;96652.88;5002226;28;20048;-73
2021/11/15 05:49:06;;;;;;;26.90;15.27;;;;;;;4.33;100.00;96656.56;5025235;28;20041;-73
2021/11/15 05:51:32;;;;;;;26.00;15.37;;;;;;;4.32;100.00;96655.72;5028766;28;20036;-73
2021/11/15 05:53:58;;;;;;;28.63;14.90;;;;;;;4.34;100.00;96647.81;5004095;28;20032;-73
2021/11/15 05:56:24;;;;;;;27.50;14.93;;;;;;;4.33;100.00;96659.16;5010614;28;20036;-73
2021/11/15 05:58:50;;;;;;;30.40;14.87;;;;;;;4.33;100.00;96654.78;5034684;28;20032;-73
2021/11/15 06:01:16;;;;;;;28.87;14.97;;;;;;;4.33;100.00;96653.97;5014648;28;20025;-72
2021/11/15 06:03:42;;;;;;;25.87;13.60;;;;;;;4.30;100.00;96665.44;5013434;28;20347;-73
2021/11/15 06:06:08;;;;;;;29.90;14.80;;;;;;;4.32;100.00;96663.53;5035213;28;20029;-73
2021/11/15 06:08:33;;;;;;;31.03;16.93;;;;;;;4.34;100.00;96659.03;5036784;28;20037;-73
2021/11/15 06:10:59;;;;;;;26.03;14.33;;;;;;;4.36;100.00;96664.13;5006382;28;20036;-73
2021/11/15 06:13:25;;;;;;;24.40;13.90;;;;;;;4.35;100.00;96667.69;5041908;28;20112;-73
2021/11/15 06:15:51;;;;;;;25.67;14.40;;;;;;;4.36;100.00;96671.94;5034905;28;20524;-72
2021/11/15 06:18:17;;;;;;;30.07;15.07;;;;;;;4.31;100.00;96674.88;5040894;28;20136;-72
2021/11/15 06:20:44;;;;;;;28.30;14.93;;;;;;;4.32;100.00;96673.94;5038332;28;20028;-72
2021/11/15 06:23:10;;;;;;;28.63;15.13;;;;;;;4.32;100.00;96679.16;5037902;28;20037;-73
2021/11/15 06:25:35;;;;;;;30.27;15.07;;;;;;;4.27;100.00;96681.25;5019075;28;20028;-73
2021/11/15 06:28:04;;;;;;;29.93;15.90;;;;;;;4.28;100.00;96682.09;5028864;28;20032;-74
2021/11/15 06:30:29;;;;;;;31.07;14.47;;;;;;;4.34;100.00;96679.88;5031535;28;20029;-74
2021/11/15 06:32:55;;;;;;;35.03;17.10;;;;;;;4.30;100.00;96680.22;5035127;28;21756;-73
2021/11/15 06:35:21;;;;;;;30.33;15.23;;;;;;;4.32;100.00;96683.53;5014627;28;20049;-73
2021/11/15 06:37:47;;;;;;;28.87;15.63;;;;;;;4.30;100.00;96680.22;5023388;28;20040;-73
2021/11/15 06:40:15;;;;;;;28.67;15.27;;;;;;;4.33;100.00;96686.03;5019225;28;20048;-73
2021/11/15 06:42:41;;;;;;;28.70;15.50;;;;;;;4.35;100.00;96681.53;5031018;28;20041;-72
2021/11/15 06:45:08;;;;;;;26.93;14.93;;;;;;;4.37;100.00;96691.84;5018796;28;20025;-73
2021/11/15 06:47:35;;;;;;;24.17;14.47;;;;;;;4.38;100.00;96688.31;5035233;28;20133;-73
2021/11/15 06:50:05;;;;;;;29.60;14.57;;;;;;;4.41;100.00;96688.09;4997453;28;20087;-73
2021/11/15 06:52:30;;;;;;;27.57;15.63;;;;;;;4.41;100.00;96688.91;5030583;28;20112;-73
2021/11/15 06:54:56;;;;;;;28.40;15.47;;;;;;;4.43;100.00;96691.41;5034249;28;20523;-73
2021/11/15 06:57:22;;;;;;;27.10;15.83;;;;;;;4.46;100.00;96693.78;5031357;28;20018;-73
2021/11/15 06:59:48;;;;;;;32.03;14.97;;;;;;;4.40;100.00;96689.03;5013844;28;20049;-72
2021/11/15 07:02:14;;;;;;;30.13;15.87;;;;;;;4.41;100.00;96699.31;5031971;28;20033;-73
2021/11/15 07:04:39;;;;;;;28.10;16.13;;;;;;;4.35;100.00;96684.13;5035833;28;20086;-72
2021/11/15 07:07:05;;;;;;;28.57;15.67;;;;;;;4.41;100.00;96691.50;5031609;28;20045;-72
2021/11/15 07:09:31;;;;;;;29.23;16.23;;;;;;;4.42;100.00;96684.53;5015822;28;20521;-72
2021/11/15 07:11:57;;;;;;;27.50;14.33;;;;;;;4.46;100.00;96686.81;5035730;28;20060;-73
2021/11/15 07:14:23;;;;;;;27.50;15.07;;;;;;;4.44;100.00;96688.69;5022062;28;20033;-72
2021/11/15 07:16:48;;;;;;;28.20;16.20;;;;;;;4.46;100.00;96692.03;5036066;28;20021;-72
2021/11/15 07:19:14;;;;;;;28.37;16.83;;;;;;;4.45;100.00;96692.94;5031186;28;20037;-73
2021/11/15 07:21:40;;;;;;;27.40;15.27;;;;;;;4.40;100.00;96692.47;5029525;28;20032;-73
2021/11/15 07:24:06;;;;;;;30.53;15.10;;;;;;;4.43;100.00;96691.41;5019575;28;20033;-72
2021/11/15 07:26:31;;;;;;;31.47;15.30;;;;;;;4.40;100.00;96702.88;5041172;28;20048;-72
2021/11/15 07:28:57;;;;;;;29.93;16.63;;;;;;;4.42;100.00;96695.78;5026337;28;20107;-72
2021/11/15 07:31:25;;;;;;;30.33;16.90;;;;;;;4.45;100.00;96697.34;5026838;28;20022;-72
2021/11/15 07:33:51;;;;;;;28.97;15.60;;;;;;;4.44;100.00;96704.31;5038747;28;20033;-73
2021/11/15 07:36:18;;;;;;;30.20;16.00;;;;;;;4.48;100.00;96700.53;5025909;28;20037;-73
2021/11/15 07:38:44;;;;;;;31.07;14.83;;;;;;;4.54;100.00;96704.50;5027900;28;20029;-73
2021/11/15 07:41:10;;;;;;;31.27;15.97;;;;;;;4.46;100.00;96712.88;5016655;28;20051;-73
2021/11/15 07:43:36;;;;;;;27.00;15.40;;;;;;;4.52;100.00;96705.53;5018588;28;20530;-73
2021/11/15 07:46:02;;;;;;;23.97;13.67;;;;;;;4.45;100.00;96708.56;5034088;28;20033;-74
2021/11/15 07:48:29;;;;;;;25.93;14.33;;;;;;;4.43;100.00;96712.25;5034402;28;20029;-73
2021/11/15 07:50:56;;;;;;;33.67;17.50;;;;;;;4.52;100.00;96715.94;5012367;28;20055;-73
2021/11/15 07:53:22;;;;;;;29.40;16.60;;;;;;;4.53;100.00;96712.41;5024489;28;20033;-73
2021/11/15 07:55:48;;;;;;;28.87;17.40;;;;;;;4.53;100.00;96708.03;5033077;28;20508;-73
2021/11/15 07:58:15;;;;;;;30.50;16.33;;;;;;;4.47;100.00;96706.72;5001605;28;20068;-73
2021/11/15 08:00:41;;;;;;;30.53;16.77;;;;;;;4.45;100.00;96711.19;5019198;28;20036;-74
2021/11/15 08:03:07;;;;;;;33.43;16.70;;;;;;;4.49;100.00;96706.59;5019877;28;20033;-73
2021/11/15 08:05:34;;;;;;;34.33;17.67;;;;;;;4.46;100.00;96705.06;5032079;28;20055;-73
2021/11/15 08:08:00;;;;;;;32.67;16.67;;;;;;;4.55;100.00;96702.72;5039560;28;20474;-73
2021/11/15 08:10:26;;;;;;;29.23;15.93;;;;;;;4.55;100.00;96700.94;5026908;28;20033;-73
2021/11/15 08:12:55;;;;;;;32.93;15.80;;;;;;;4.54;100.00;96703.66;5041419;28;20704;-72
2021/11/15 08:15:23;;;;;;;28.70;16.57;;;;;;;4.54;100.00;96699.28;5012962;28;20029;-73
2021/11/15 08:17:52;;;;;;;27.67;16.00;;;;;;;4.56;100.00;96696.56;5031939;28;20119;-73
2021/11/15 08:20:28;;;;;;;27.23;14.90;;;;;;;4.60;100.00;96692.81;5004502;28;20085;-73
2021/11/15 08:22:58;;;;;;;29.67;16.07;;;;;;;4.60;100.00;96693.63;5017521;28;20022;-73
2021/11/15 08:25:26;;;;;;;30.03;16.33;;;;;;;4.57;100.00;96713.88;5035075;28;20074;-73
2021/11/15 08:27:54;;;;;;;31.30;16.20;;;;;;;4.52;100.00;96710.75;5032462;28;20029;-73
2021/11/15 08:30:20;;;;;;;29.97;15.47;;;;;;;4.54;100.00;96711.47;5018126;28;20017;-73
2021/11/15 08:32:46;;;;;;;33.60;17.20;;;;;;;4.53;100.00;96723.69;5032896;28;20528;-73
2021/11/15 08:35:12;;;;;;;34.97;18.33;;;;;;;4.56;100.00;96722.59;5018807;28;20029;-73
2021/11/15 08:38:01;;;;;;;36.87;18.77;;;;;;;4.55;100.00;96729.59;5039119;28;20030;-73
2021/11/15 08:40:26;;;;;;;34.97;16.60;;;;;;;4.55;100.00;96728.75;5040569;28;20029;-73
2021/11/15 08:42:52;;;;;;;31.70;17.60;;;;;;;4.50;100.00;96723.91;5020519;28;20033;-73
2021/11/15 08:45:20;;;;;;;34.37;17.63;;;;;;;4.55;100.00;96728.75;5017840;28;20104;-74
2021/11/15 08:47:46;;;;;;;35.23;16.97;;;;;;;4.54;100.00;96729.72;5035533;28;20032;-73
2021/11/15 08:50:11;;;;;;;34.13;17.90;;;;;;;4.58;100.00;96728.53;5013607;28;20037;-73
2021/11/15 08:52:37;;;;;;;31.60;17.27;;;;;;;4.64;100.00;96725.50;5023367;28;20029;-73
2021/11/15 08:55:04;;;;;;;31.17;17.97;;;;;;;4.57;100.00;96727.72;5041018;28;20061;-75
2021/11/15 08:57:29;;;;;;;29.43;16.27;;;;;;;4.61;100.00;96725.72;5017154;28;20471;-73
2021/11/15 08:59:55;;;;;;;28.67;16.37;;;;;;;4.64;100.00;96730.72;5010642;28;20037;-73
2021/11/15 09:02:21;;;;;;;32.77;15.87;;;;;;;4.69;100.00;96733.81;5016045;28;20020;-73
2021/11/15 09:04:47;;;;;;;31.63;16.17;;;;;;;4.67;100.00;96727.88;5013172;28;20034;-73
2021/11/15 09:07:13;;;;;;;29.03;16.80;;;;;;;4.62;100.00;96732.59;5026304;28;20021;-74
2021/11/15 09:09:42;;;;;;;28.97;15.33;;;;;;;4.68;100.00;96729.53;5038780;28;20037;-73
2021/11/15 09:12:09;;;;;;;28.53;15.97;;;;;;;4.66;100.00;96729.66;5038740;28;20029;-73
2021/11/15 09:14:37;;;;;;;30.27;17.73;;;;;;;4.69;100.00;96729.44;5016080;28;20033;-73
2021/11/15 09:17:04;;;;;;;28.80;16.13;;;;;;;4.72;100.00;96729.19;5038506;28;20043;-73
2021/11/15 09:19:30;;;;;;;28.87;16.30;;;;;;;4.77;100.00;96728.06;5016918;28;20501;-73
2021/11/15 09:21:56;;;;;;;29.50;16.43;;;;;;;4.69;100.00;96728.59;5038153;28;20060;-73
2021/11/15 09:24:23;;;;;;;29.57;16.13;;;;;;;4.70;100.00;96735.50;5034471;28;20520;-73
2021/11/15 09:26:50;;;;;;;29.50;15.40;;;;;;;4.73;100.00;96735.28;5031536;28;20057;-73
2021/11/15 09:29:18;;;;;;;25.70;15.50;;;;;;;4.77;100.00;96736.69;5036721;28;20025;-73
2021/11/15 09:31:44;;;;;;;28.73;16.67;;;;;;;4.73;100.00;96730.06;5033904;28;20541;-74
2021/11/15 09:34:10;;;;;;;33.77;16.47;;;;;;;4.74;100.00;96736.91;5035682;28;20025;-73
2021/11/15 09:36:37;;;;;;;28.63;15.53;;;;;;;4.75;100.00;96737.75;5025243;28;20077;-73
2021/11/15 09:39:04;;;;;;;26.90;14.93;;;;;;;4.81;100.00;96738.13;5037572;28;20716;-73
2021/11/15 09:41:30;;;;;;;27.43;15.50;;;;;;;4.73;100.00;96745.69;5015735;28;20021;-73
2021/11/15 09:43:58;;;;;;;27.67;16.20;;;;;;;4.73;100.00;96745.69;5042867;28;20032;-73
2021/11/15 09:46:27;;;;;;;29.23;14.97;;;;;;;4.84;100.00;96742.31;5022377;28;20056;-73
2021/11/15 09:49:03;;;;;;;24.60;15.20;;;;;;;4.77;100.00;96736.69;5037907;28;20052;-73
2021/11/15 09:51:29;;;;;;;28.50;14.63;;;;;;;4.81;100.00;96743.34;5014240;28;20040;-73
2021/11/15 09:54:00;;;;;;;29.17;15.57;;;;;;;4.70;100.00;96731.09;5038055;28;20517;-73
2021/11/15 09:56:26;;;;;;;29.83;16.33;;;;;;;4.76;100.00;96734.19;5041527;28;20098;-73
2021/11/15 09:58:52;;;;;;;27.13;14.83;;;;;;;4.76;100.00;96729.81;5014550;28;20041;-73
2021/11/15 10:01:18;;;;;;;30.40;17.47;;;;;;;4.73;100.00;96740.47;5027551;28;20060;-74
2021/11/15 10:03:45;;;;;;;27.40;16.07;;;;;;;4.69;100.00;96725.97;5015544;28;20036;-73
2021/11/15 10:06:10;;;;;;;25.77;14.47;;;;;;;4.69;100.00;96739.00;5027375;28;20559;-73
2021/11/15 10:08:45;;;;;;;24.93;15.60;;;;;;;4.69;100.00;96744.22;5012398;28;20033;-74
2021/11/15 10:11:11;;;;;;;25.10;15.97;;;;;;;4.73;100.00;96733.50;5020258;28;20116;-73
2021/11/15 10:13:39;;;;;;;30.17;17.50;;;;;;;4.70;100.00;96725.06;5038350;28;20021;-74
2021/11/15 10:16:12;;;;;;;30.50;18.57;;;;;;;4.85;100.00;96718.72;5016895;28;20048;-73
2021/11/15 10:18:53;;;;;;;24.92;14.73;;;;;;;4.81;100.00;96706.03;5012588;28;20033;-73
2021/11/15 10:21:41;;;;;;;23.53;15.53;;;;;;;4.75;100.00;96709.09;5015609;28;20037;-72
2021/11/15 10:24:08;;;;;;;27.17;15.83;;;;;;;4.80;100.00;96720.03;5009253;28;20116;-72
2021/11/15 10:26:51;;;;;;;26.63;16.13;;;;;;;4.84;100.00;96713.63;5032754;28;20111;-72
2021/11/15 10:29:38;;;;;;;27.43;16.30;;;;;;;4.76;100.00;96722.00;5024411;28;20061;-72
2021/11/15 10:32:05;;;;;;;28.60;16.43;;;;;;;4.83;100.00;96710.22;5012211;28;20173;-73
2021/11/15 10:34:35;;;;;;;28.13;16.23;;;;;;;4.87;100.00;96701.22;5017730;28;20029;-73
2021/11/15 10:37:13;;;;;;;34.00;19.23;;;;;;;4.87;100.00;96711.63;5040864;28;20040;-72
2021/11/15 10:39:51;;;;;;;24.20;14.57;;;;;;;4.96;100.00;96702.28;5040526;28;20033;-73
2021/11/15 10:42:22;;;;;;;34.63;21.27;;;;;;;4.92;100.00;96698.25;5021422;28;20033;-73
2021/11/15 10:45:03;;;;;;;27.50;15.17;;;;;;;4.88;100.00;96702.03;5036522;28;20029;-73
2021/11/15 10:47:33;;;;;;;24.03;15.70;;;;;;;4.92;100.00;96699.09;5031115;28;20044;-73
2021/11/15 10:50:33;;;;;;;26.97;16.90;;;;;;;4.94;100.00;96676.34;5021135;28;20039;-73
2021/11/15 10:53:08;;;;;;;25.57;15.40;;;;;;;5.06;100.00;96689.41;5002478;28;20057;-74
2021/11/15 10:55:37;;;;;;;30.33;17.10;;;;;;;5.00;100.00;96690.72;5012467;28;20064;-73
2021/11/15 10:58:37;;;;;;;31.33;16.90;;;;;;;4.96;100.00;96703.16;5014640;28;20075;-73
2021/11/15 11:01:05;;;;;;;31.50;17.90;;;;;;;5.00;100.00;96695.94;5032444;28;20056;-73
2021/11/15 11:03:32;;;;;;;27.73;15.73;;;;;;;4.96;100.00;96700.53;5030481;28;20045;-73
2021/11/15 11:06:02;;;;;;;32.70;16.67;;;;;;;5.01;100.00;96691.53;5003212;28;20041;-73
2021/11/15 11:08:39;;;;;;;30.03;16.70;;;;;;;4.92;100.00;96693.03;5012608;28;20460;-72
2021/11/15 11:11:21;;;;;;;31.50;16.83;;;;;;;4.87;100.00;96693.41;5014595;28;20125;-71
2021/11/15 11:13:55;;;;;;;28.13;16.13;;;;;;;4.99;100.00;96688.22;5008130;28;20028;-72
2021/11/15 11:16:53;;;;;;;27.13;15.50;;;;;;;5.10;100.00;96676.06;5036183;28;20432;-72
2021/11/15 11:19:36;;;;;;;28.40;15.10;;;;;;;4.99;100.00;96689.03;5031114;28;20025;-74